createdAt,value
2022-10-26T00:01:37.661Z,4.70
2022-10-26T00:04:04.951Z,2.35
2022-10-26T00:06:32.035Z,3.13
2022-10-26T00:08:59.254Z,2.63
2022-10-26T00:11:26.395Z,3.85
2022-10-26T00:13:53.511Z,2.47
2022-10-26T00:16:25.135Z,3.05
2022-10-26T00:18:52.515Z,3.47
2022-10-26T00:21:20.027Z,5.65
2022-10-26T00:23:47.167Z,3.75
2022-10-26T00:26:14.481Z,5.90
2022-10-26T00:28:41.605Z,4.50
2022-10-26T00:31:09.996Z,3.25
2022-10-26T00:33:37.195Z,6.18
2022-10-26T00:36:04.692Z,5.75
2022-10-26T00:38:31.974Z,3.30
2022-10-26T00:40:59.121Z,6.05
2022-10-26T00:43:26.239Z,4.20
2022-10-26T00:45:56.134Z,3.70
2022-10-26T00:48:30.495Z,3.15
2022-10-26T00:50:59.571Z,5.38
2022-10-26T00:53:27.156Z,4.32
2022-10-26T00:55:54.823Z,4.40
2022-10-26T00:58:22.474Z,5.07
2022-10-26T01:00:49.714Z,2.58
2022-10-26T01:03:17.768Z,3.42
2022-10-26T01:05:46.466Z,6.40
2022-10-26T01:08:15.041Z,2.67
2022-10-26T01:10:43.870Z,2.78
2022-10-26T01:13:11.298Z,1.88
2022-10-26T01:15:44.594Z,2.60
2022-10-26T01:18:16.279Z,1.77
2022-10-26T01:21:01.934Z,4.78
2022-10-26T01:23:42.015Z,2.83
2022-10-26T01:26:33.715Z,2.53
2022-10-26T01:29:16.330Z,2.22
2022-10-26T01:31:44.889Z,2.55
2022-10-26T01:34:14.886Z,2.75
2022-10-26T01:36:49.553Z,2.72
2022-10-26T01:39:25.611Z,2.75
2022-10-26T01:41:53.943Z,2.17
2022-10-26T01:44:21.048Z,3.45
2022-10-26T01:46:49.746Z,4.72
2022-10-26T01:49:18.779Z,3.55
2022-10-26T01:51:48.054Z,3.15
2022-10-26T01:54:15.192Z,3.45
2022-10-26T01:56:44.567Z,4.90
2022-10-26T01:59:14.777Z,3.70
2022-10-26T02:01:44.832Z,2.95
2022-10-26T02:04:25.876Z,2.10
2022-10-26T02:06:56.019Z,2.35
2022-10-26T02:09:26.159Z,1.90
2022-10-26T02:11:54.262Z,2.55
2022-10-26T02:14:31.183Z,3.00
2022-10-26T02:16:59.347Z,1.95
2022-10-26T02:19:31.424Z,4.43
2022-10-26T02:22:03.223Z,2.83
2022-10-26T02:24:31.626Z,2.05
2022-10-26T02:26:59.996Z,2.90
2022-10-26T02:29:28.163Z,4.63
2022-10-26T02:31:55.634Z,3.42
2022-10-26T02:34:24.775Z,2.47
2022-10-26T02:36:54.569Z,3.10
2022-10-26T02:39:22.258Z,2.78
2022-10-26T02:41:49.547Z,2.50
2022-10-26T02:44:24.734Z,3.38
2022-10-26T02:46:52.394Z,3.03
2022-10-26T02:49:19.733Z,8.10
2022-10-26T02:51:50.118Z,4.03
2022-10-26T02:54:25.214Z,2.13
2022-10-26T02:56:54.595Z,2.75
2022-10-26T02:59:23.383Z,3.67
2022-10-26T03:01:51.680Z,3.08
2022-10-26T03:04:18.912Z,5.25
2022-10-26T03:06:56.518Z,3.05
2022-10-26T03:09:25.524Z,3.78
2022-10-26T03:11:53.138Z,2.80
2022-10-26T03:14:20.436Z,2.45
2022-10-26T03:16:47.785Z,4.07
2022-10-26T03:19:15.010Z,4.38
2022-10-26T03:21:42.436Z,2.67
2022-10-26T03:24:10.050Z,3.10
2022-10-26T03:26:37.200Z,2.55
2022-10-26T03:29:04.537Z,1.88
2022-10-26T03:31:31.642Z,2.72
2022-10-26T03:33:58.856Z,1.63
2022-10-26T03:36:26.007Z,2.20
2022-10-26T03:38:53.160Z,1.50
2022-10-26T03:41:20.279Z,5.85
2022-10-26T03:43:48.485Z,3.85
2022-10-26T03:46:15.677Z,3.53
2022-10-26T03:48:42.763Z,3.50
2022-10-26T03:51:09.907Z,2.22
2022-10-26T03:53:37.045Z,2.22
2022-10-26T03:56:04.162Z,2.30
2022-10-26T03:58:31.231Z,1.60
2022-10-26T04:00:58.435Z,2.22
2022-10-26T04:03:25.558Z,2.70
2022-10-26T04:05:52.688Z,3.00
2022-10-26T04:08:19.786Z,4.55
2022-10-26T04:10:47.508Z,1.67
2022-10-26T04:13:14.586Z,2.50
2022-10-26T04:15:41.789Z,2.58
2022-10-26T04:18:09.791Z,1.98
2022-10-26T04:20:38.988Z,3.00
2022-10-26T04:23:07.278Z,2.13
2022-10-26T04:25:34.821Z,4.00
2022-10-26T04:28:03.144Z,2.28
2022-10-26T04:30:30.706Z,3.60
2022-10-26T04:32:57.818Z,6.43
2022-10-26T04:35:24.916Z,2.42
2022-10-26T04:37:52.210Z,3.40
2022-10-26T04:40:19.372Z,2.45
2022-10-26T04:42:47.530Z,2.85
2022-10-26T04:45:17.423Z,4.45
2022-10-26T04:47:44.645Z,2.70
2022-10-26T04:50:13.024Z,3.22
2022-10-26T04:52:40.146Z,2.28
2022-10-26T04:55:07.959Z,2.17
2022-10-26T04:57:35.537Z,3.00
2022-10-26T05:00:03.445Z,2.75
2022-10-26T05:02:30.635Z,2.30
2022-10-26T05:04:57.853Z,2.45
2022-10-26T05:07:24.938Z,2.30
2022-10-26T05:09:52.058Z,3.22
2022-10-26T05:12:19.154Z,1.70
2022-10-26T05:14:46.235Z,3.85
2022-10-26T05:17:13.344Z,4.10
2022-10-26T05:19:40.472Z,3.03
2022-10-26T05:22:07.588Z,3.25
2022-10-26T05:24:34.780Z,6.22
2022-10-26T05:27:01.894Z,3.97
2022-10-26T05:29:29.056Z,2.78
2022-10-26T05:31:56.227Z,5.55
2022-10-26T05:34:23.350Z,2.53
2022-10-26T05:36:53.325Z,3.25
2022-10-26T05:39:20.596Z,2.78
2022-10-26T05:41:47.698Z,4.18
2022-10-26T05:44:14.797Z,1.98
2022-10-26T05:46:42.001Z,5.28
2022-10-26T05:49:09.145Z,5.57
2022-10-26T05:51:37.221Z,11.38
2022-10-26T05:54:04.474Z,18.08
2022-10-26T05:56:38.970Z,11.80
2022-10-26T05:59:11.354Z,11.73
2022-10-26T06:01:57.203Z,7.63
2022-10-26T06:04:48.426Z,14.60
2022-10-26T06:07:16.645Z,5.68
2022-10-26T06:09:44.236Z,7.03
2022-10-26T06:12:13.565Z,4.38
2022-10-26T06:14:43.023Z,5.30
2022-10-26T06:17:19.178Z,4.00
2022-10-26T06:19:58.512Z,6.00
2022-10-26T06:22:25.664Z,3.15
2022-10-26T06:25:13.506Z,4.35
2022-10-26T06:27:57.647Z,5.63
2022-10-26T06:30:24.806Z,3.97
2022-10-26T06:33:05.946Z,7.45
2022-10-26T06:35:49.610Z,6.40
2022-10-26T06:38:21.370Z,3.90
2022-10-26T06:40:53.269Z,4.80
2022-10-26T06:43:27.598Z,3.42
2022-10-26T06:46:13.115Z,4.22
2022-10-26T06:48:49.339Z,7.82
2022-10-26T06:51:17.127Z,5.60
2022-10-26T06:54:01.096Z,4.03
2022-10-26T06:56:28.568Z,9.35
2022-10-26T06:58:56.899Z,6.03
2022-10-26T07:01:24.115Z,6.05
2022-10-26T07:03:51.246Z,3.90
2022-10-26T07:08:46.466Z,4.93
2022-10-26T07:11:13.568Z,4.60
2022-10-26T07:13:40.717Z,7.35
2022-10-26T07:16:07.885Z,5.63
2022-10-26T07:18:34.973Z,6.18
2022-10-26T07:21:02.051Z,6.63
2022-10-26T07:26:01.458Z,4.65
2022-10-26T07:28:28.638Z,7.60
2022-10-26T07:30:56.288Z,5.95
2022-10-26T07:33:23.471Z,7.40
2022-10-26T07:35:50.559Z,3.30
2022-10-26T07:38:17.647Z,4.97
2022-10-26T07:40:44.849Z,4.93
2022-10-26T07:43:11.918Z,4.90
2022-10-26T07:45:40.634Z,3.85
2022-10-26T07:48:07.837Z,4.43
2022-10-26T07:50:34.986Z,3.78
2022-10-26T07:53:02.161Z,2.80
2022-10-26T07:55:29.303Z,6.30
2022-10-26T07:57:56.901Z,4.97
2022-10-26T08:00:24.377Z,3.15
2022-10-26T08:02:51.695Z,3.58
2022-10-26T08:05:18.859Z,2.60
2022-10-26T08:07:46.235Z,3.10
2022-10-26T08:10:13.760Z,2.03
2022-10-26T08:12:40.974Z,4.07
2022-10-26T08:15:08.387Z,1.20
2022-10-26T08:17:35.531Z,5.05
2022-10-26T08:20:02.668Z,5.93
2022-10-26T08:22:30.862Z,2.60
2022-10-26T08:24:58.070Z,1.95
2022-10-26T08:27:25.165Z,3.50
2022-10-26T08:29:52.358Z,2.75
2022-10-26T08:32:19.455Z,4.60
2022-10-26T08:34:46.576Z,1.50
2022-10-26T08:37:13.658Z,3.20
2022-10-26T08:39:40.761Z,1.40
2022-10-26T08:42:17.161Z,2.28
2022-10-26T08:44:48.445Z,3.47
2022-10-26T08:47:15.559Z,0.98
2022-10-26T08:49:47.447Z,1.52
2022-10-26T08:52:16.564Z,3.58
2022-10-26T08:54:54.427Z,3.92
2022-10-26T08:57:27.301Z,3.72
2022-10-26T09:00:03.056Z,2.35
2022-10-26T09:02:30.191Z,2.13
2022-10-26T09:05:01.551Z,5.05
2022-10-26T09:07:37.269Z,3.80
2022-10-26T09:10:23.556Z,2.55
2022-10-26T09:12:53.929Z,4.43
2022-10-26T09:15:28.794Z,2.28
2022-10-26T09:20:38.274Z,2.25
2022-10-26T09:23:24.075Z,2.08
2022-10-26T09:25:56.378Z,2.85
2022-10-26T09:28:23.590Z,6.30
2022-10-26T09:30:51.072Z,2.17
2022-10-26T09:33:20.368Z,2.53
2022-10-26T09:35:51.153Z,3.20
2022-10-26T09:38:25.175Z,2.75
2022-10-26T09:40:55.024Z,1.30
2022-10-26T09:43:42.443Z,3.08
2022-10-26T09:46:13.929Z,2.53
2022-10-26T09:48:53.753Z,1.60
2022-10-26T09:51:21.002Z,2.55
2022-10-26T09:53:49.096Z,4.45
2022-10-26T09:56:17.631Z,3.92
2022-10-26T09:58:47.304Z,1.75
2022-10-26T10:01:35.633Z,3.20
2022-10-26T10:04:17.741Z,3.13
2022-10-26T10:06:45.859Z,3.50
2022-10-26T10:09:14.257Z,3.83
2022-10-26T10:11:46.391Z,4.10
2022-10-26T10:14:20.386Z,2.80
2022-10-26T10:16:50.982Z,4.67
2022-10-26T10:19:22.797Z,4.43
2022-10-26T10:21:50.796Z,3.85
2022-10-26T10:24:37.041Z,5.43
2022-10-26T10:27:04.239Z,1.25
2022-10-26T10:29:32.819Z,3.50
2022-10-26T10:32:00.918Z,2.80
2022-10-26T10:34:28.234Z,1.90
2022-10-26T10:36:55.474Z,3.03
2022-10-26T10:39:36.960Z,2.30
2022-10-26T10:42:05.588Z,5.60
2022-10-26T10:44:33.991Z,1.92
2022-10-26T10:47:05.144Z,3.08
2022-10-26T10:49:32.680Z,1.48
2022-10-26T10:52:00.431Z,4.78
2022-10-26T10:54:35.253Z,3.50
2022-10-26T10:59:41.546Z,3.10
2022-10-26T11:02:26.805Z,6.28
2022-10-26T11:05:12.588Z,7.65
2022-10-26T11:07:51.629Z,4.78
2022-10-26T11:10:20.422Z,6.38
2022-10-26T11:12:52.851Z,4.95
2022-10-26T11:15:22.823Z,3.00
2022-10-26T11:18:19.538Z,7.75
2022-10-26T11:20:50.457Z,5.25
2022-10-26T11:23:24.707Z,3.33
2022-10-26T11:25:59.149Z,3.33
2022-10-26T11:28:29.253Z,4.07
2022-10-26T11:31:00.050Z,5.38
2022-10-26T11:33:30.125Z,5.22
2022-10-26T11:35:59.400Z,8.68
2022-10-26T11:38:45.671Z,5.57
2022-10-26T11:41:19.942Z,8.35
2022-10-26T11:43:51.538Z,6.28
2022-10-26T11:46:19.320Z,4.55
2022-10-26T11:48:46.594Z,4.65
2022-10-26T11:51:23.348Z,4.20
2022-10-26T11:53:51.848Z,6.00
2022-10-26T11:56:31.697Z,5.53
2022-10-26T11:58:59.620Z,3.90
2022-10-26T12:01:29.377Z,3.55
2022-10-26T12:03:58.326Z,4.55
2022-10-26T12:06:31.140Z,6.07
2022-10-26T12:09:01.364Z,8.60
2022-10-26T12:11:47.095Z,4.15
2022-10-26T12:14:33.038Z,4.95
2022-10-26T12:17:07.070Z,5.85
2022-10-26T12:19:46.092Z,5.68
2022-10-26T12:22:14.822Z,5.78
2022-10-26T12:24:46.027Z,5.68
2022-10-26T12:27:49.895Z,7.07
2022-10-26T12:30:20.351Z,6.07
2022-10-26T12:32:48.690Z,6.60
2022-10-26T12:35:34.866Z,9.43
2022-10-26T12:38:31.640Z,6.13
2022-10-26T12:41:10.658Z,8.95
2022-10-26T12:46:15.173Z,3.95
2022-10-26T12:48:43.575Z,5.53
2022-10-26T12:51:23.071Z,8.05
2022-10-26T12:54:10.441Z,4.55
2022-10-26T12:56:43.937Z,8.63
2022-10-26T12:59:12.937Z,9.65
2022-10-26T13:01:45.730Z,5.07
2022-10-26T13:04:12.875Z,5.97
2022-10-26T13:06:55.298Z,13.73
2022-10-26T13:09:24.459Z,8.18
2022-10-26T13:11:54.364Z,5.63
2022-10-26T13:14:23.627Z,11.13
2022-10-26T13:16:50.870Z,7.97
2022-10-26T13:19:44.421Z,8.10
2022-10-26T13:22:15.988Z,6.57
2022-10-26T13:24:49.287Z,8.70
2022-10-26T13:27:16.385Z,7.03
2022-10-26T13:30:02.421Z,8.55
2022-10-26T13:32:30.447Z,7.05
2022-10-26T13:34:58.202Z,10.38
2022-10-26T13:37:27.147Z,7.93
2022-10-26T13:39:56.093Z,5.60
2022-10-26T13:45:12.545Z,6.57
2022-10-26T13:47:45.794Z,5.47
2022-10-26T13:50:16.411Z,10.35
2022-10-26T13:52:45.562Z,7.80
2022-10-26T13:55:19.486Z,4.70
2022-10-26T13:57:56.680Z,10.27
2022-10-26T14:00:24.298Z,9.95
2022-10-26T14:02:51.844Z,6.28
2022-10-26T14:05:19.843Z,7.20
2022-10-26T14:07:52.623Z,13.93
2022-10-26T14:10:30.191Z,4.95
2022-10-26T14:12:58.351Z,9.32
2022-10-26T14:15:32.735Z,9.85
2022-10-26T14:18:01.511Z,6.88
2022-10-26T14:20:29.399Z,7.32
2022-10-26T14:22:56.590Z,6.20
2022-10-26T14:25:42.087Z,5.18
2022-10-26T14:28:25.478Z,6.75
2022-10-26T14:30:52.719Z,4.43
2022-10-26T14:33:21.224Z,9.00
2022-10-26T14:35:48.883Z,8.63
2022-10-26T14:38:22.486Z,6.90
2022-10-26T14:40:51.936Z,8.02
2022-10-26T14:43:21.570Z,5.78
2022-10-26T14:45:50.081Z,6.78
2022-10-26T14:48:22.270Z,6.78
2022-10-26T14:51:08.792Z,4.07
2022-10-26T14:53:40.297Z,7.25
2022-10-26T14:56:18.858Z,6.00
2022-10-26T14:58:46.065Z,5.25
2022-10-26T15:01:17.090Z,9.27
2022-10-26T15:03:45.679Z,10.38
2022-10-26T15:06:24.899Z,9.82
2022-10-26T15:08:57.353Z,8.43
2022-10-26T15:11:24.918Z,5.65
2022-10-26T15:13:52.143Z,4.55
2022-10-26T15:16:19.259Z,7.82
2022-10-26T15:18:47.130Z,9.77
2022-10-26T15:21:40.779Z,7.05
2022-10-26T15:24:37.546Z,6.60
2022-10-26T15:27:13.226Z,5.65
2022-10-26T15:29:40.366Z,9.00
2022-10-26T15:32:19.667Z,10.18
2022-10-26T15:34:50.870Z,6.20
2022-10-26T15:37:18.065Z,6.88
2022-10-26T15:39:45.269Z,5.63
2022-10-26T15:42:15.182Z,4.25
2022-10-26T15:44:42.327Z,6.25
2022-10-26T15:47:14.374Z,10.95
2022-10-26T15:49:41.467Z,7.45
2022-10-26T15:52:09.856Z,7.15
2022-10-26T15:54:36.959Z,9.82
2022-10-26T15:57:04.183Z,6.63
2022-10-26T15:59:31.549Z,11.23
2022-10-26T16:01:58.685Z,7.07
2022-10-26T16:04:26.186Z,8.40
2022-10-26T16:06:53.338Z,5.85
2022-10-26T16:09:20.664Z,4.68
2022-10-26T16:11:47.845Z,10.15
2022-10-26T16:14:14.963Z,6.28
2022-10-26T16:16:42.063Z,7.90
2022-10-26T16:19:29.901Z,4.43
2022-10-26T16:21:57.903Z,8.65
2022-10-26T16:24:25.194Z,11.93
2022-10-26T16:26:52.510Z,8.20
2022-10-26T16:29:20.329Z,8.60
2022-10-26T16:31:47.840Z,8.15
2022-10-26T16:34:15.021Z,4.88
2022-10-26T16:36:42.107Z,4.97
2022-10-26T16:39:11.041Z,4.53
2022-10-26T16:41:38.190Z,4.65
2022-10-26T16:44:05.339Z,7.60
2022-10-26T16:46:32.557Z,8.40
2022-10-26T16:49:00.021Z,9.07
2022-10-26T16:51:28.359Z,6.22
2022-10-26T16:53:56.662Z,7.43
2022-10-26T16:56:25.893Z,8.43
2022-10-26T16:58:53.038Z,7.88
2022-10-26T17:01:20.989Z,8.10
2022-10-26T17:03:49.190Z,8.73
2022-10-26T17:06:16.904Z,5.72
2022-10-26T17:08:44.025Z,9.48
2022-10-26T17:11:12.245Z,10.07
2022-10-26T17:13:39.927Z,5.22
2022-10-26T17:16:14.660Z,7.85
2022-10-26T17:18:42.244Z,8.93
2022-10-26T17:21:09.746Z,9.80
2022-10-26T17:23:36.986Z,9.80
2022-10-26T17:26:07.940Z,9.77
2022-10-26T17:29:57.355Z,7.75
2022-10-26T17:32:24.481Z,7.95
2022-10-26T17:34:51.551Z,7.38
2022-10-26T17:37:18.877Z,7.53
2022-10-26T17:39:46.587Z,12.82
2022-10-26T17:42:13.692Z,10.02
2022-10-26T17:44:40.828Z,9.38
2022-10-26T17:47:08.758Z,10.38
2022-10-26T17:49:36.498Z,7.35
2022-10-26T17:52:03.950Z,14.48
2022-10-26T17:54:31.081Z,9.57
2022-10-26T17:59:30.111Z,8.75
2022-10-26T18:01:57.524Z,10.98
2022-10-26T18:04:24.703Z,9.77
2022-10-26T18:06:51.784Z,16.00
2022-10-26T18:09:18.989Z,8.55
2022-10-26T18:11:46.230Z,8.52
2022-10-26T18:14:13.855Z,8.68
2022-10-26T18:16:40.929Z,12.57
2022-10-26T18:19:08.815Z,12.25
2022-10-26T18:21:39.702Z,9.77
2022-10-26T18:24:07.765Z,13.65
2022-10-26T18:26:35.370Z,12.07
2022-10-26T18:29:03.132Z,9.98
2022-10-26T18:31:31.185Z,7.75
2022-10-26T18:33:59.665Z,12.70
2022-10-26T18:36:27.541Z,12.60
2022-10-26T18:38:54.878Z,8.52
2022-10-26T18:41:23.081Z,10.38
2022-10-26T18:43:52.910Z,10.43
2022-10-26T18:46:24.374Z,13.18
2022-10-26T18:48:52.204Z,11.60
2022-10-26T18:51:20.310Z,8.25
2022-10-26T18:53:48.035Z,11.40
2022-10-26T18:56:16.456Z,9.65
2022-10-26T18:58:44.410Z,10.48
2022-10-26T19:01:12.951Z,11.00
2022-10-26T19:03:40.735Z,11.55
2022-10-26T19:06:21.627Z,12.82
2022-10-26T19:08:48.742Z,9.02
2022-10-26T19:11:17.225Z,10.82
2022-10-26T19:13:44.458Z,7.88
2022-10-26T19:16:21.718Z,12.55
2022-10-26T19:19:00.241Z,12.23
2022-10-26T19:21:28.688Z,13.55
2022-10-26T19:23:57.195Z,10.90
2022-10-26T19:26:25.508Z,15.88
2022-10-26T19:29:00.178Z,13.43
2022-10-26T19:31:27.840Z,8.95
2022-10-26T19:33:58.539Z,10.05
2022-10-26T19:36:27.131Z,11.63
2022-10-26T19:38:54.924Z,12.15
2022-10-26T19:41:23.441Z,12.10
2022-10-26T19:43:50.895Z,12.75
2022-10-26T19:46:20.559Z,11.25
2022-10-26T19:48:51.811Z,11.88
2022-10-26T19:51:19.036Z,12.85
2022-10-26T19:53:46.159Z,11.60
2022-10-26T19:56:13.787Z,9.85
2022-10-26T19:58:41.794Z,11.23
2022-10-26T20:01:09.407Z,10.15
2022-10-26T20:03:36.928Z,10.32
2022-10-26T20:06:11.249Z,9.98
2022-10-26T20:08:38.365Z,9.90
2022-10-26T20:11:08.926Z,8.82
2022-10-26T20:13:39.310Z,10.93
2022-10-26T20:16:06.973Z,9.57
2022-10-26T20:18:34.344Z,9.15
2022-10-26T20:21:01.551Z,11.55
2022-10-26T20:23:28.626Z,10.48
2022-10-26T20:25:56.361Z,12.85
2022-10-26T20:28:23.519Z,7.97
2022-10-26T20:30:50.678Z,8.57
2022-10-26T20:33:17.802Z,10.30
2022-10-26T20:35:44.986Z,11.98
2022-10-26T20:38:16.965Z,10.75
2022-10-26T20:40:44.214Z,16.70
2022-10-26T20:43:11.404Z,11.95
2022-10-26T20:45:38.686Z,7.75
2022-10-26T20:48:05.959Z,9.27
2022-10-26T20:50:33.229Z,8.55
2022-10-26T20:53:00.339Z,11.77
2022-10-26T20:55:30.217Z,9.32
2022-10-26T20:58:01.997Z,7.72
2022-10-26T21:00:30.176Z,8.10
2022-10-26T21:02:57.306Z,8.02
2022-10-26T21:05:25.715Z,9.35
2022-10-26T21:07:52.922Z,11.32
2022-10-26T21:10:20.119Z,8.23
2022-10-26T21:12:47.510Z,8.35
2022-10-26T21:15:14.883Z,11.27
2022-10-26T21:17:42.077Z,6.30
2022-10-26T21:20:09.478Z,7.43
2022-10-26T21:22:36.676Z,9.63
2022-10-26T21:25:03.813Z,7.95
2022-10-26T21:27:30.902Z,7.55
2022-10-26T21:29:58.007Z,10.35
2022-10-26T21:32:25.186Z,7.50
2022-10-26T21:34:52.326Z,9.48
2022-10-26T21:37:19.409Z,7.35
2022-10-26T21:39:46.548Z,11.05
2022-10-26T21:42:13.630Z,8.40
2022-10-26T21:44:41.758Z,6.95
2022-10-26T21:47:09.482Z,5.78
2022-10-26T21:49:36.702Z,6.90
2022-10-26T21:52:03.911Z,7.85
2022-10-26T21:54:31.027Z,8.15
2022-10-26T21:56:58.173Z,6.30
2022-10-26T21:59:25.302Z,8.73
2022-10-26T22:01:52.652Z,9.18
2022-10-26T22:04:19.866Z,6.72
2022-10-26T22:06:47.178Z,12.30
2022-10-26T22:09:14.283Z,6.63
2022-10-26T22:11:41.421Z,5.38
2022-10-26T22:14:08.499Z,6.82
2022-10-26T22:16:35.770Z,7.80
2022-10-26T22:19:04.708Z,6.75
2022-10-26T22:21:33.966Z,9.13
2022-10-26T22:24:01.184Z,10.18
2022-10-26T22:26:28.679Z,7.28
2022-10-26T22:28:57.633Z,6.13
2022-10-26T22:31:26.411Z,7.03
2022-10-26T22:33:58.126Z,8.43
2022-10-26T22:36:27.523Z,9.00
2022-10-26T22:38:54.751Z,8.45
2022-10-26T22:41:22.573Z,6.90
2022-10-26T22:43:53.125Z,6.57
2022-10-26T22:46:21.382Z,5.53
2022-10-26T22:48:48.524Z,6.47
2022-10-26T22:51:16.935Z,10.43
2022-10-26T22:53:44.224Z,8.00
2022-10-26T22:56:12.422Z,14.20
2022-10-26T22:58:40.190Z,6.90
2022-10-26T23:01:08.452Z,6.40
2022-10-26T23:03:36.042Z,10.18
2022-10-26T23:06:03.646Z,7.40
2022-10-26T23:08:30.846Z,5.43
2022-10-26T23:11:01.878Z,8.18
2022-10-26T23:13:29.458Z,7.13
2022-10-26T23:15:56.914Z,6.43
2022-10-26T23:18:24.053Z,11.75
2022-10-26T23:20:51.669Z,6.85
2022-10-26T23:23:18.892Z,11.07
2022-10-26T23:25:46.038Z,11.27
2022-10-26T23:28:13.137Z,4.93
2022-10-26T23:30:40.268Z,8.15
2022-10-26T23:33:07.387Z,5.60
2022-10-26T23:35:34.535Z,6.30
2022-10-26T23:38:01.650Z,6.60
2022-10-26T23:40:28.855Z,6.53
2022-10-26T23:42:55.925Z,6.57
2022-10-26T23:45:23.287Z,5.85
2022-10-26T23:47:50.801Z,6.15
2022-10-26T23:50:18.118Z,5.30
2022-10-26T23:52:48.998Z,8.75
2022-10-26T23:55:17.255Z,5.38
2022-10-26T23:57:44.496Z,7.53
